»·PEaware :: N195AU KL88-KSBP

N195AU :: KL88-KSBP

FLIGHT INFORMATION

Flight Status: Arrived
Operator: Privately registered:
United States
More flights under this callsign
Pilot: Oliver H. (20465)
Aircraft: CESSNA 172 SKYHAWK
(C172)
More flights by this aircraft type
Origin: KL88
Destination: KSBP San Luis Co Regl
United States
More flights between these airports :: More routes between these airports
Route:
File this flight plan on PilotEdge
Remarks: CAT 2 Rating
Altitude:
(Current/Filed)
6,500ft
Speed:
(Current/Filed)
112kts
Departed: 17-Sep-18 12:44 PM
Arrived: 17-Sep-18 02:31 PM
Distance/Time
Traveled:
Not Available
Distance/Time
To Go:
Arrived

Flight Plot

Page will automatically refresh every two minutes.


Map Options




Map Legend


Flown Route
Filed Route
Departure Airport
Arrival Airport
Navaid (VOR, NDB)
Fix

Horizontal Profiles

Position Reports

Time Latitude Longitude Heading Altitude Ground
Speed
17-Sep-18 12:30 34.942856 -119.690285 204 2156ft 0kts
17-Sep-18 12:31 34.942856 -119.690285 204 2156ft 0kts
17-Sep-18 12:32 34.942856 -119.690285 204 2156ft 0kts
17-Sep-18 12:33 34.942856 -119.690285 204 2156ft 0kts
17-Sep-18 12:34 34.942856 -119.690285 204 2156ft 0kts
17-Sep-18 12:35 34.942856 -119.690285 204 2156ft 0kts
17-Sep-18 12:36 34.942856 -119.690285 204 2156ft 0kts
17-Sep-18 12:37 34.942856 -119.690285 204 2156ft 0kts
17-Sep-18 12:38 34.942856 -119.690285 204 2156ft 0kts
17-Sep-18 12:39 34.942856 -119.690285 204 2156ft 0kts
17-Sep-18 12:40 34.942856 -119.690285 204 2156ft 0kts
17-Sep-18 12:41 34.942856 -119.690285 204 2156ft 0kts
17-Sep-18 12:42 34.942856 -119.690285 204 2156ft 0kts
17-Sep-18 12:43 34.942823 -119.690698 275 2156ft 8kts
17-Sep-18 12:44 34.941465 -119.689342 116 2161ft 24kts
17-Sep-18 12:45 34.938639 -119.682427 118 2190ft 17kts
17-Sep-18 12:46 34.939219 -119.683906 296 2186ft 72kts
17-Sep-18 12:47 34.951229 -119.706996 293 3083ft 81kts
17-Sep-18 12:48 34.959888 -119.732373 286 3958ft 86kts
17-Sep-18 12:49 34.971582 -119.757957 295 4791ft 87kts
17-Sep-18 12:50 34.983561 -119.785783 295 5349ft 105kts
17-Sep-18 12:51 34.986779 -119.818836 273 5960ft 97kts
17-Sep-18 12:52 34.993989 -119.850059 284 6461ft 107kts
17-Sep-18 12:53 35.004703 -119.884840 285 6520ft 100kts
17-Sep-18 12:54 35.013944 -119.914420 284 6521ft 89kts
17-Sep-18 12:55 35.023011 -119.943504 285 6522ft 96kts
17-Sep-18 12:56 35.032868 -119.974988 285 6523ft 105kts
17-Sep-18 12:57 35.043685 -120.009475 286 6523ft 110kts
17-Sep-18 12:58 35.054615 -120.044416 286 6526ft 109kts
17-Sep-18 12:59 35.065433 -120.079081 286 6529ft 108kts
17-Sep-18 13:00 35.075992 -120.112896 287 6531ft 103kts
17-Sep-18 13:01 35.086114 -120.145412 287 6534ft 102kts
17-Sep-18 13:02 35.096168 -120.177731 287 6536ft 101kts
17-Sep-18 13:03 35.105715 -120.208448 288 6537ft 101kts
17-Sep-18 13:04 35.115659 -120.240469 288 6538ft 100kts
17-Sep-18 13:05 35.125535 -120.272311 288 6539ft 100kts
17-Sep-18 13:06 35.135611 -120.304819 289 6371ft 107kts
17-Sep-18 13:07 35.146428 -120.339688 290 5867ft 111kts
17-Sep-18 13:08 35.157277 -120.374803 290 5368ft 111kts
17-Sep-18 13:09 35.168208 -120.410194 291 4866ft 111kts
17-Sep-18 13:10 35.178980 -120.445117 292 4370ft 110kts
17-Sep-18 13:11 35.173144 -120.438326 349 4219ft 97kts
17-Sep-18 13:12 35.184004 -120.470095 319 3875ft 107kts
17-Sep-18 13:13 35.186946 -120.445639 117 3774ft 105kts
17-Sep-18 13:14 35.172371 -120.417073 123 3742ft 104kts
17-Sep-18 13:15 35.170189 -120.413080 122 3742ft 104kts
17-Sep-18 13:16 35.155377 -120.384480 120 3745ft 104kts
17-Sep-18 13:17 35.148975 -120.371196 119 3746ft 104kts
17-Sep-18 13:18 35.143188 -120.358697 118 3747ft 105kts
17-Sep-18 13:19 35.129614 -120.327177 115 3749ft 105kts
17-Sep-18 13:20 35.117747 -120.296275 113 3751ft 106kts
17-Sep-18 13:21 35.106231 -120.262657 111 3752ft 107kts
17-Sep-18 13:22 35.095867 -120.228369 108 3753ft 108kts
17-Sep-18 13:23 35.086695 -120.193623 106 3750ft 108kts
17-Sep-18 13:24 35.078971 -120.159224 103 4009ft 99kts
17-Sep-18 13:25 35.086413 -120.134840 346 4527ft 84kts
17-Sep-18 13:26 35.093234 -120.157692 278 5028ft 81kts
17-Sep-18 13:27 35.099017 -120.183509 286 5499ft 85kts
17-Sep-18 13:28 35.103763 -120.199693 292 5521ft 96kts
17-Sep-18 13:29 35.095236 -120.219418 164 5522ft 108kts
17-Sep-18 13:30 35.087812 -120.183535 88 5521ft 119kts
17-Sep-18 13:31 35.083903 -120.143391 108 5517ft 119kts
17-Sep-18 13:32 35.072670 -120.105384 113 5513ft 119kts
17-Sep-18 13:33 35.062077 -120.072007 114 5509ft 118kts
17-Sep-18 13:34 35.050500 -120.035807 114 5504ft 118kts
17-Sep-18 13:35 35.038686 -119.998916 115 5498ft 116kts
17-Sep-18 13:36 35.026736 -119.961711 114 5327ft 127kts
17-Sep-18 13:37 35.013349 -119.920036 114 4825ft 134kts
17-Sep-18 13:38 34.999712 -119.877613 114 4322ft 134kts
17-Sep-18 13:39 34.986100 -119.835316 113 3821ft 134kts
17-Sep-18 13:40 34.972471 -119.793035 113 3320ft 134kts
17-Sep-18 13:41 34.958831 -119.750908 114 2871ft 130kts
17-Sep-18 13:42 34.943767 -119.715523 121 3214ft 116kts
17-Sep-18 13:43 34.927770 -119.682434 130 3307ft 92kts
17-Sep-18 13:44 34.933931 -119.670418 288 2534ft 61kts
17-Sep-18 13:45 34.939885 -119.685440 295 2178ft 28kts
17-Sep-18 13:46 34.942508 -119.691042 325 2156ft 12kts
17-Sep-18 13:47 34.942913 -119.690625 185 2156ft 0kts
17-Sep-18 13:48 34.942913 -119.690625 185 2156ft 0kts
17-Sep-18 13:51 34.942913 -119.690625 185 2156ft 0kts
17-Sep-18 13:52 34.942913 -119.690625 185 2156ft 0kts
17-Sep-18 13:53 34.942913 -119.690625 185 2156ft 0kts
17-Sep-18 13:54 34.942913 -119.690625 185 2156ft 0kts
17-Sep-18 13:55 34.942913 -119.690625 185 2156ft 0kts
17-Sep-18 13:56 34.942913 -119.690625 185 2156ft 0kts
17-Sep-18 13:57 34.942913 -119.690625 185 2156ft 0kts
17-Sep-18 13:58 34.942913 -119.690625 185 2156ft 0kts
17-Sep-18 13:59 34.942884 -119.690638 218 2156ft 2kts
17-Sep-18 14:00 34.940875 -119.687860 116 2166ft 36kts
17-Sep-18 14:01 34.940543 -119.687076 295 2172ft 73kts
17-Sep-18 14:02 34.951766 -119.716383 286 3163ft 83kts
17-Sep-18 14:03 34.958464 -119.737780 285 3907ft 80kts
17-Sep-18 14:04 34.966043 -119.761945 284 4762ft 77kts
17-Sep-18 14:05 34.974686 -119.789239 286 5371ft 92kts
17-Sep-18 14:06 34.984061 -119.818811 285 5968ft 94kts
17-Sep-18 14:07 34.993532 -119.848902 285 6463ft 102kts
17-Sep-18 14:08 35.004202 -119.882454 286 6485ft 104kts
17-Sep-18 14:09 35.014427 -119.914972 286 6485ft 101kts
17-Sep-18 14:10 35.024457 -119.946980 286 6479ft 102kts
17-Sep-18 14:11 35.034460 -119.978913 285 6468ft 99kts
17-Sep-18 14:12 35.044298 -120.010347 286 6468ft 99kts
17-Sep-18 14:13 35.054095 -120.041691 286 6475ft 98kts
17-Sep-18 14:14 35.063806 -120.072798 287 6481ft 98kts
17-Sep-18 14:15 35.073546 -120.104027 287 6487ft 98kts
17-Sep-18 14:16 35.081032 -120.128026 288 6490ft 98kts
17-Sep-18 14:17 35.090765 -120.159286 288 6495ft 98kts
17-Sep-18 14:18 35.100491 -120.190556 288 6499ft 98kts
17-Sep-18 14:19 35.110187 -120.221763 289 6502ft 98kts
17-Sep-18 14:20 35.119925 -120.253131 289 6503ft 98kts
17-Sep-18 14:21 35.129666 -120.284559 289 6502ft 99kts
17-Sep-18 14:22 35.139455 -120.316148 289 6500ft 99kts
17-Sep-18 14:23 35.149196 -120.347645 288 6498ft 99kts
17-Sep-18 14:24 35.159733 -120.381583 289 5826ft 110kts
17-Sep-18 14:25 35.170846 -120.417533 290 5025ft 114kts
17-Sep-18 14:26 35.181950 -120.454277 287 4172ft 119kts
17-Sep-18 14:27 35.191446 -120.492780 286 3284ft 120kts
17-Sep-18 14:28 35.200394 -120.531268 284 2496ft 117kts
17-Sep-18 14:29 35.209316 -120.569925 286 1591ft 118kts
17-Sep-18 14:30 35.217737 -120.602872 290 875ft 83kts
17-Sep-18 14:31 35.225684 -120.620664 303 465ft 53kts
17-Sep-18 14:32 35.234151 -120.635472 300 207ft 48kts
17-Sep-18 14:33 35.237620 -120.639468 90 193ft 6kts
17-Sep-18 14:34 35.238204 -120.637854 58 199ft 1kts
17-Sep-18 14:35 35.238241 -120.637743 89 200ft 0kts
17-Sep-18 14:36 35.238241 -120.637743 89 200ft 0kts
17-Sep-18 14:37 35.238241 -120.637743 89 200ft 0kts
17-Sep-18 14:38 35.238241 -120.637743 89 200ft 0kts
17-Sep-18 14:39 35.238241 -120.637743 89 200ft 0kts
17-Sep-18 14:40 35.238241 -120.637743 89 200ft 0kts
17-Sep-18 14:41 35.238241 -120.637743 89 200ft 0kts
17-Sep-18 14:42 35.238241 -120.637743 89 200ft 0kts
17-Sep-18 14:43 35.238241 -120.637743 89 200ft 0kts
17-Sep-18 14:44 35.238241 -120.637743 89 200ft 0kts
17-Sep-18 14:45 35.238241 -120.637743 89 200ft 0kts
17-Sep-18 14:46 35.238241 -120.637743 89 200ft 0kts
17-Sep-18 14:47 35.238241 -120.637743 89 200ft 0kts

Navigation Log

Ident Type
Flight plan parsing failed, navigation log unavailable